sensor_id;sensor_type;location;lat;lon;timestamp;P1;durP1;ratioP1;P2;durP2;ratioP2
23596;SDS011;40226;50.874;4.394;2022-12-18T00:01:27;101.50;;;44.25;;
23596;SDS011;40226;50.874;4.394;2022-12-18T00:03:56;101.60;;;43.10;;
23596;SDS011;40226;50.874;4.394;2022-12-18T00:06:23;100.93;;;42.90;;
23596;SDS011;40226;50.874;4.394;2022-12-18T00:08:49;96.03;;;43.75;;
23596;SDS011;40226;50.874;4.394;2022-12-18T00:11:19;108.20;;;45.28;;
23596;SDS011;40226;50.874;4.394;2022-12-18T00:13:47;102.60;;;45.20;;
23596;SDS011;40226;50.874;4.394;2022-12-18T00:16:15;101.15;;;43.55;;
23596;SDS011;40226;50.874;4.394;2022-12-18T00:18:46;100.93;;;44.60;;
23596;SDS011;40226;50.874;4.394;2022-12-18T00:21:13;101.40;;;43.28;;
23596;SDS011;40226;50.874;4.394;2022-12-18T00:23:39;104.55;;;44.35;;
23596;SDS011;40226;50.874;4.394;2022-12-18T00:26:07;107.70;;;44.50;;
23596;SDS011;40226;50.874;4.394;2022-12-18T00:28:35;108.43;;;44.55;;
23596;SDS011;40226;50.874;4.394;2022-12-18T00:31:02;109.47;;;45.40;;
23596;SDS011;40226;50.874;4.394;2022-12-18T00:33:32;101.15;;;43.30;;
23596;SDS011;40226;50.874;4.394;2022-12-18T00:36:04;105.15;;;43.92;;
23596;SDS011;40226;50.874;4.394;2022-12-18T00:38:43;103.95;;;44.15;;
23596;SDS011;40226;50.874;4.394;2022-12-18T00:41:09;102.38;;;43.50;;
23596;SDS011;40226;50.874;4.394;2022-12-18T00:43:37;97.38;;;43.40;;
23596;SDS011;40226;50.874;4.394;2022-12-18T00:46:04;109.93;;;44.60;;
23596;SDS011;40226;50.874;4.394;2022-12-18T00:48:30;105.97;;;44.42;;
23596;SDS011;40226;50.874;4.394;2022-12-18T00:50:56;102.10;;;43.17;;
23596;SDS011;40226;50.874;4.394;2022-12-18T00:53:21;98.82;;;42.65;;
23596;SDS011;40226;50.874;4.394;2022-12-18T00:55:47;99.95;;;40.70;;
23596;SDS011;40226;50.874;4.394;2022-12-18T00:58:13;102.07;;;42.63;;
23596;SDS011;40226;50.874;4.394;2022-12-18T01:00:40;104.70;;;43.38;;
23596;SDS011;40226;50.874;4.394;2022-12-18T01:03:06;99.90;;;43.38;;
23596;SDS011;40226;50.874;4.394;2022-12-18T01:05:32;102.65;;;43.85;;
23596;SDS011;40226;50.874;4.394;2022-12-18T01:07:58;103.55;;;42.75;;
23596;SDS011;40226;50.874;4.394;2022-12-18T01:10:24;102.97;;;42.22;;
23596;SDS011;40226;50.874;4.394;2022-12-18T01:12:50;103.85;;;42.67;;
23596;SDS011;40226;50.874;4.394;2022-12-18T01:15:16;92.63;;;40.97;;
23596;SDS011;40226;50.874;4.394;2022-12-18T01:17:42;101.65;;;41.90;;
23596;SDS011;40226;50.874;4.394;2022-12-18T01:20:09;99.78;;;42.13;;
23596;SDS011;40226;50.874;4.394;2022-12-18T01:22:36;111.10;;;46.60;;
23596;SDS011;40226;50.874;4.394;2022-12-18T01:25:02;96.03;;;40.08;;
23596;SDS011;40226;50.874;4.394;2022-12-18T01:27:29;103.10;;;43.55;;
23596;SDS011;40226;50.874;4.394;2022-12-18T01:29:56;100.78;;;41.90;;
23596;SDS011;40226;50.874;4.394;2022-12-18T01:32:22;102.32;;;41.85;;
23596;SDS011;40226;50.874;4.394;2022-12-18T01:34:48;102.53;;;43.05;;
23596;SDS011;40226;50.874;4.394;2022-12-18T01:37:14;100.22;;;43.22;;
23596;SDS011;40226;50.874;4.394;2022-12-18T01:39:40;110.70;;;43.92;;
23596;SDS011;40226;50.874;4.394;2022-12-18T01:42:10;97.38;;;43.00;;
23596;SDS011;40226;50.874;4.394;2022-12-18T01:50:09;83.47;;;38.13;;
23596;SDS011;40226;50.874;4.394;2022-12-18T01:53:06;92.90;;;37.50;;
23596;SDS011;40226;50.874;4.394;2022-12-18T01:55:42;85.53;;;37.55;;
23596;SDS011;40226;50.874;4.394;2022-12-18T01:58:27;88.15;;;37.10;;
23596;SDS011;40226;50.874;4.394;2022-12-18T02:01:00;83.25;;;35.50;;
23596;SDS011;40226;50.874;4.394;2022-12-18T02:03:26;89.90;;;36.22;;
23596;SDS011;40226;50.874;4.394;2022-12-18T02:06:07;86.90;;;36.83;;
23596;SDS011;40226;50.874;4.394;2022-12-18T02:11:39;85.13;;;36.47;;
23596;SDS011;40226;50.874;4.394;2022-12-18T02:16:41;83.32;;;35.30;;
23596;SDS011;40226;50.874;4.394;2022-12-18T02:22:00;83.32;;;37.35;;
23596;SDS011;40226;50.874;4.394;2022-12-18T02:24:35;92.90;;;39.60;;
23596;SDS011;40226;50.874;4.394;2022-12-18T02:27:23;83.13;;;35.80;;
23596;SDS011;40226;50.874;4.394;2022-12-18T02:29:53;83.78;;;36.55;;
23596;SDS011;40226;50.874;4.394;2022-12-18T02:32:24;79.90;;;33.10;;
23596;SDS011;40226;50.874;4.394;2022-12-18T02:34:53;81.03;;;35.20;;
23596;SDS011;40226;50.874;4.394;2022-12-18T02:37:22;73.13;;;32.95;;
23596;SDS011;40226;50.874;4.394;2022-12-18T02:39:50;69.75;;;30.35;;
23596;SDS011;40226;50.874;4.394;2022-12-18T02:42:18;65.13;;;29.92;;
23596;SDS011;40226;50.874;4.394;2022-12-18T02:44:44;65.43;;;29.30;;
23596;SDS011;40226;50.874;4.394;2022-12-18T02:47:12;77.00;;;31.88;;
23596;SDS011;40226;50.874;4.394;2022-12-18T02:49:55;75.15;;;32.25;;
23596;SDS011;40226;50.874;4.394;2022-12-18T02:55:18;70.43;;;31.50;;
23596;SDS011;40226;50.874;4.394;2022-12-18T02:57:48;71.85;;;31.50;;
23596;SDS011;40226;50.874;4.394;2022-12-18T03:03:55;61.53;;;27.85;;
23596;SDS011;40226;50.874;4.394;2022-12-18T03:06:38;60.03;;;27.80;;
23596;SDS011;40226;50.874;4.394;2022-12-18T03:09:09;58.40;;;26.75;;
23596;SDS011;40226;50.874;4.394;2022-12-18T03:11:40;56.08;;;26.70;;
23596;SDS011;40226;50.874;4.394;2022-12-18T03:14:29;58.58;;;26.65;;
23596;SDS011;40226;50.874;4.394;2022-12-18T03:17:00;57.55;;;26.23;;
23596;SDS011;40226;50.874;4.394;2022-12-18T03:19:28;53.90;;;26.75;;
23596;SDS011;40226;50.874;4.394;2022-12-18T03:21:57;56.92;;;25.95;;
23596;SDS011;40226;50.874;4.394;2022-12-18T03:24:27;55.60;;;25.23;;
23596;SDS011;40226;50.874;4.394;2022-12-18T03:27:02;56.15;;;26.08;;
23596;SDS011;40226;50.874;4.394;2022-12-18T03:29:34;55.22;;;26.13;;
23596;SDS011;40226;50.874;4.394;2022-12-18T03:32:11;54.55;;;24.48;;
23596;SDS011;40226;50.874;4.394;2022-12-18T03:34:59;53.83;;;26.48;;
23596;SDS011;40226;50.874;4.394;2022-12-18T03:37:30;59.30;;;25.13;;
23596;SDS011;40226;50.874;4.394;2022-12-18T03:39:55;54.75;;;25.48;;
23596;SDS011;40226;50.874;4.394;2022-12-18T03:42:25;56.65;;;25.48;;
23596;SDS011;40226;50.874;4.394;2022-12-18T03:45:02;51.67;;;24.02;;
23596;SDS011;40226;50.874;4.394;2022-12-18T03:47:49;51.42;;;23.25;;
23596;SDS011;40226;50.874;4.394;2022-12-18T03:50:29;47.93;;;23.27;;
23596;SDS011;40226;50.874;4.394;2022-12-18T03:55:56;46.97;;;22.88;;
23596;SDS011;40226;50.874;4.394;2022-12-18T03:58:26;42.85;;;21.30;;
23596;SDS011;40226;50.874;4.394;2022-12-18T04:00:54;52.50;;;23.48;;
23596;SDS011;40226;50.874;4.394;2022-12-18T04:03:24;47.05;;;22.70;;
23596;SDS011;40226;50.874;4.394;2022-12-18T04:05:51;52.97;;;24.75;;
23596;SDS011;40226;50.874;4.394;2022-12-18T04:08:19;56.08;;;25.17;;
23596;SDS011;40226;50.874;4.394;2022-12-18T04:10:47;57.03;;;26.65;;
23596;SDS011;40226;50.874;4.394;2022-12-18T04:13:13;57.00;;;25.92;;
23596;SDS011;40226;50.874;4.394;2022-12-18T04:15:47;56.60;;;25.45;;
23596;SDS011;40226;50.874;4.394;2022-12-18T04:18:13;50.05;;;22.90;;
23596;SDS011;40226;50.874;4.394;2022-12-18T04:20:38;46.95;;;22.30;;
23596;SDS011;40226;50.874;4.394;2022-12-18T04:23:04;39.67;;;20.15;;
23596;SDS011;40226;50.874;4.394;2022-12-18T04:25:29;40.92;;;19.77;;
23596;SDS011;40226;50.874;4.394;2022-12-18T04:27:55;39.60;;;19.90;;
23596;SDS011;40226;50.874;4.394;2022-12-18T04:30:21;44.58;;;20.13;;
23596;SDS011;40226;50.874;4.394;2022-12-18T04:32:46;48.60;;;21.00;;
23596;SDS011;40226;50.874;4.394;2022-12-18T04:35:12;43.22;;;19.42;;
23596;SDS011;40226;50.874;4.394;2022-12-18T04:37:37;41.15;;;20.08;;
23596;SDS011;40226;50.874;4.394;2022-12-18T04:40:03;45.35;;;21.35;;
23596;SDS011;40226;50.874;4.394;2022-12-18T04:42:29;39.67;;;19.85;;
23596;SDS011;40226;50.874;4.394;2022-12-18T04:44:54;41.65;;;19.35;;
23596;SDS011;40226;50.874;4.394;2022-12-18T04:47:20;42.47;;;20.92;;
23596;SDS011;40226;50.874;4.394;2022-12-18T04:49:45;50.75;;;21.67;;
23596;SDS011;40226;50.874;4.394;2022-12-18T04:52:11;48.08;;;21.75;;
23596;SDS011;40226;50.874;4.394;2022-12-18T04:54:37;49.78;;;22.00;;
23596;SDS011;40226;50.874;4.394;2022-12-18T04:57:02;45.60;;;21.65;;
23596;SDS011;40226;50.874;4.394;2022-12-18T04:59:28;46.92;;;20.77;;
23596;SDS011;40226;50.874;4.394;2022-12-18T05:01:53;39.55;;;19.83;;
23596;SDS011;40226;50.874;4.394;2022-12-18T05:04:19;39.33;;;20.13;;
23596;SDS011;40226;50.874;4.394;2022-12-18T05:06:44;39.00;;;18.92;;
23596;SDS011;40226;50.874;4.394;2022-12-18T05:09:10;39.08;;;18.50;;
23596;SDS011;40226;50.874;4.394;2022-12-18T05:11:36;42.80;;;19.45;;
23596;SDS011;40226;50.874;4.394;2022-12-18T05:14:01;41.58;;;20.02;;
23596;SDS011;40226;50.874;4.394;2022-12-18T05:16:27;36.85;;;18.80;;
23596;SDS011;40226;50.874;4.394;2022-12-18T05:18:52;39.92;;;18.00;;
23596;SDS011;40226;50.874;4.394;2022-12-18T05:21:18;36.90;;;18.63;;
23596;SDS011;40226;50.874;4.394;2022-12-18T05:23:44;35.85;;;18.42;;
23596;SDS011;40226;50.874;4.394;2022-12-18T05:26:09;44.10;;;19.63;;
23596;SDS011;40226;50.874;4.394;2022-12-18T05:28:42;38.30;;;17.77;;
23596;SDS011;40226;50.874;4.394;2022-12-18T05:31:08;76.47;;;32.30;;
23596;SDS011;40226;50.874;4.394;2022-12-18T05:33:34;43.90;;;21.13;;
23596;SDS011;40226;50.874;4.394;2022-12-18T05:36:02;42.97;;;20.05;;
23596;SDS011;40226;50.874;4.394;2022-12-18T05:38:30;43.88;;;20.25;;
23596;SDS011;40226;50.874;4.394;2022-12-18T05:40:57;40.30;;;20.05;;
23596;SDS011;40226;50.874;4.394;2022-12-18T05:43:23;39.15;;;19.60;;
23596;SDS011;40226;50.874;4.394;2022-12-18T05:45:49;40.47;;;20.50;;
23596;SDS011;40226;50.874;4.394;2022-12-18T05:48:15;39.88;;;19.88;;
23596;SDS011;40226;50.874;4.394;2022-12-18T05:50:42;46.95;;;21.20;;
23596;SDS011;40226;50.874;4.394;2022-12-18T05:53:10;39.33;;;20.63;;
23596;SDS011;40226;50.874;4.394;2022-12-18T05:55:37;42.95;;;20.52;;
23596;SDS011;40226;50.874;4.394;2022-12-18T05:58:04;42.00;;;20.58;;
23596;SDS011;40226;50.874;4.394;2022-12-18T06:00:31;44.70;;;20.80;;
23596;SDS011;40226;50.874;4.394;2022-12-18T06:03:01;41.72;;;21.13;;
23596;SDS011;40226;50.874;4.394;2022-12-18T06:05:27;41.50;;;20.55;;
23596;SDS011;40226;50.874;4.394;2022-12-18T06:07:53;46.50;;;21.73;;
23596;SDS011;40226;50.874;4.394;2022-12-18T06:10:19;50.15;;;22.25;;
23596;SDS011;40226;50.874;4.394;2022-12-18T06:12:44;45.92;;;21.33;;
23596;SDS011;40226;50.874;4.394;2022-12-18T06:15:10;42.08;;;20.95;;
23596;SDS011;40226;50.874;4.394;2022-12-18T06:17:36;42.08;;;21.30;;
23596;SDS011;40226;50.874;4.394;2022-12-18T06:20:02;41.22;;;20.60;;
23596;SDS011;40226;50.874;4.394;2022-12-18T06:22:30;45.25;;;21.23;;
23596;SDS011;40226;50.874;4.394;2022-12-18T06:24:57;47.83;;;21.48;;
23596;SDS011;40226;50.874;4.394;2022-12-18T06:27:22;47.00;;;21.15;;
23596;SDS011;40226;50.874;4.394;2022-12-18T06:29:49;49.28;;;22.27;;
23596;SDS011;40226;50.874;4.394;2022-12-18T06:32:14;47.40;;;21.05;;
23596;SDS011;40226;50.874;4.394;2022-12-18T06:34:40;40.10;;;20.75;;
23596;SDS011;40226;50.874;4.394;2022-12-18T06:37:05;41.70;;;21.38;;
23596;SDS011;40226;50.874;4.394;2022-12-18T06:39:33;43.00;;;20.75;;
23596;SDS011;40226;50.874;4.394;2022-12-18T06:41:59;46.05;;;21.45;;
23596;SDS011;40226;50.874;4.394;2022-12-18T06:44:25;45.90;;;20.77;;
23596;SDS011;40226;50.874;4.394;2022-12-18T06:46:50;39.92;;;19.05;;
23596;SDS011;40226;50.874;4.394;2022-12-18T06:49:16;43.17;;;20.80;;
23596;SDS011;40226;50.874;4.394;2022-12-18T06:51:41;41.17;;;20.65;;
23596;SDS011;40226;50.874;4.394;2022-12-18T06:54:07;44.13;;;21.38;;
23596;SDS011;40226;50.874;4.394;2022-12-18T06:56:33;44.20;;;20.48;;
23596;SDS011;40226;50.874;4.394;2022-12-18T06:58:59;41.88;;;20.10;;
23596;SDS011;40226;50.874;4.394;2022-12-18T07:01:25;40.55;;;20.15;;
23596;SDS011;40226;50.874;4.394;2022-12-18T07:03:52;42.85;;;20.30;;
23596;SDS011;40226;50.874;4.394;2022-12-18T07:06:20;40.90;;;20.27;;
23596;SDS011;40226;50.874;4.394;2022-12-18T07:08:47;42.58;;;19.45;;
23596;SDS011;40226;50.874;4.394;2022-12-18T07:11:14;41.97;;;20.60;;
23596;SDS011;40226;50.874;4.394;2022-12-18T07:13:41;38.10;;;18.50;;
23596;SDS011;40226;50.874;4.394;2022-12-18T07:16:17;41.58;;;19.23;;
23596;SDS011;40226;50.874;4.394;2022-12-18T07:18:44;41.30;;;19.65;;
23596;SDS011;40226;50.874;4.394;2022-12-18T07:21:13;41.53;;;19.42;;
23596;SDS011;40226;50.874;4.394;2022-12-18T07:23:40;39.72;;;18.27;;
23596;SDS011;40226;50.874;4.394;2022-12-18T07:26:07;39.47;;;20.08;;
23596;SDS011;40226;50.874;4.394;2022-12-18T07:28:34;37.90;;;18.48;;
23596;SDS011;40226;50.874;4.394;2022-12-18T07:31:05;35.17;;;18.92;;
23596;SDS011;40226;50.874;4.394;2022-12-18T07:33:35;40.33;;;18.42;;
23596;SDS011;40226;50.874;4.394;2022-12-18T07:36:01;39.30;;;19.02;;
23596;SDS011;40226;50.874;4.394;2022-12-18T07:38:29;40.95;;;20.15;;
23596;SDS011;40226;50.874;4.394;2022-12-18T07:40:59;33.97;;;16.52;;
23596;SDS011;40226;50.874;4.394;2022-12-18T07:43:29;34.95;;;16.52;;
23596;SDS011;40226;50.874;4.394;2022-12-18T07:45:54;38.60;;;17.70;;
23596;SDS011;40226;50.874;4.394;2022-12-18T07:48:20;32.53;;;16.55;;
23596;SDS011;40226;50.874;4.394;2022-12-18T07:50:46;34.03;;;17.05;;
23596;SDS011;40226;50.874;4.394;2022-12-18T07:53:11;34.42;;;17.23;;
23596;SDS011;40226;50.874;4.394;2022-12-18T07:55:37;28.30;;;14.95;;
23596;SDS011;40226;50.874;4.394;2022-12-18T07:58:03;28.42;;;14.48;;
23596;SDS011;40226;50.874;4.394;2022-12-18T08:00:29;30.92;;;15.10;;
23596;SDS011;40226;50.874;4.394;2022-12-18T08:02:55;31.35;;;14.77;;
23596;SDS011;40226;50.874;4.394;2022-12-18T08:05:21;29.30;;;14.75;;
23596;SDS011;40226;50.874;4.394;2022-12-18T08:07:47;35.60;;;16.30;;
23596;SDS011;40226;50.874;4.394;2022-12-18T08:10:12;31.98;;;16.02;;
23596;SDS011;40226;50.874;4.394;2022-12-18T08:12:38;32.75;;;16.85;;
23596;SDS011;40226;50.874;4.394;2022-12-18T08:15:04;37.22;;;18.02;;
23596;SDS011;40226;50.874;4.394;2022-12-18T08:17:30;31.67;;;17.25;;
23596;SDS011;40226;50.874;4.394;2022-12-18T08:19:56;33.05;;;16.30;;
23596;SDS011;40226;50.874;4.394;2022-12-18T08:22:21;33.13;;;16.83;;
23596;SDS011;40226;50.874;4.394;2022-12-18T08:24:47;30.05;;;16.55;;
23596;SDS011;40226;50.874;4.394;2022-12-18T08:27:13;32.67;;;17.08;;
23596;SDS011;40226;50.874;4.394;2022-12-18T08:29:38;33.45;;;17.20;;
23596;SDS011;40226;50.874;4.394;2022-12-18T08:32:04;33.08;;;16.50;;
23596;SDS011;40226;50.874;4.394;2022-12-18T08:34:29;33.13;;;17.50;;
23596;SDS011;40226;50.874;4.394;2022-12-18T08:36:55;35.70;;;17.27;;
23596;SDS011;40226;50.874;4.394;2022-12-18T08:39:21;34.30;;;16.50;;
23596;SDS011;40226;50.874;4.394;2022-12-18T08:41:46;32.17;;;16.45;;
23596;SDS011;40226;50.874;4.394;2022-12-18T08:44:32;35.22;;;18.42;;
23596;SDS011;40226;50.874;4.394;2022-12-18T08:47:03;31.35;;;17.13;;
23596;SDS011;40226;50.874;4.394;2022-12-18T08:49:30;35.10;;;17.90;;
23596;SDS011;40226;50.874;4.394;2022-12-18T08:51:55;34.97;;;18.65;;
23596;SDS011;40226;50.874;4.394;2022-12-18T08:54:24;37.72;;;18.65;;
23596;SDS011;40226;50.874;4.394;2022-12-18T08:56:50;35.63;;;16.50;;
23596;SDS011;40226;50.874;4.394;2022-12-18T08:59:16;30.42;;;15.60;;
23596;SDS011;40226;50.874;4.394;2022-12-18T09:01:43;34.03;;;17.00;;
23596;SDS011;40226;50.874;4.394;2022-12-18T09:04:09;33.80;;;17.02;;
23596;SDS011;40226;50.874;4.394;2022-12-18T09:06:35;30.25;;;16.05;;
23596;SDS011;40226;50.874;4.394;2022-12-18T09:09:00;30.77;;;16.38;;
23596;SDS011;40226;50.874;4.394;2022-12-18T09:11:26;31.65;;;15.93;;
23596;SDS011;40226;50.874;4.394;2022-12-18T09:13:53;32.33;;;16.63;;
23596;SDS011;40226;50.874;4.394;2022-12-18T09:16:20;34.92;;;17.83;;
23596;SDS011;40226;50.874;4.394;2022-12-18T09:18:47;35.42;;;18.17;;
23596;SDS011;40226;50.874;4.394;2022-12-18T09:21:14;32.47;;;18.05;;
23596;SDS011;40226;50.874;4.394;2022-12-18T09:23:41;31.70;;;17.58;;
23596;SDS011;40226;50.874;4.394;2022-12-18T09:26:06;33.05;;;17.30;;
23596;SDS011;40226;50.874;4.394;2022-12-18T09:28:32;44.15;;;20.65;;
23596;SDS011;40226;50.874;4.394;2022-12-18T09:30:58;37.47;;;19.30;;
23596;SDS011;40226;50.874;4.394;2022-12-18T09:33:27;25.38;;;14.00;;
23596;SDS011;40226;50.874;4.394;2022-12-18T09:35:53;26.25;;;13.38;;
23596;SDS011;40226;50.874;4.394;2022-12-18T09:38:19;25.40;;;14.35;;
23596;SDS011;40226;50.874;4.394;2022-12-18T09:40:45;25.15;;;12.70;;
23596;SDS011;40226;50.874;4.394;2022-12-18T09:43:15;25.20;;;13.10;;
23596;SDS011;40226;50.874;4.394;2022-12-18T09:45:49;26.00;;;13.13;;
23596;SDS011;40226;50.874;4.394;2022-12-18T09:48:27;26.08;;;13.75;;
23596;SDS011;40226;50.874;4.394;2022-12-18T09:50:58;23.98;;;12.95;;
23596;SDS011;40226;50.874;4.394;2022-12-18T09:53:28;28.02;;;13.45;;
23596;SDS011;40226;50.874;4.394;2022-12-18T09:55:59;26.00;;;12.93;;
23596;SDS011;40226;50.874;4.394;2022-12-18T09:58:28;30.73;;;15.05;;
23596;SDS011;40226;50.874;4.394;2022-12-18T10:01:14;27.77;;;15.25;;
23596;SDS011;40226;50.874;4.394;2022-12-18T10:03:47;28.13;;;13.98;;
23596;SDS011;40226;50.874;4.394;2022-12-18T10:06:15;26.92;;;13.70;;
23596;SDS011;40226;50.874;4.394;2022-12-18T10:08:53;29.17;;;15.32;;
23596;SDS011;40226;50.874;4.394;2022-12-18T10:22:33;29.17;;;15.75;;
23596;SDS011;40226;50.874;4.394;2022-12-18T10:27:48;29.90;;;16.08;;
23596;SDS011;40226;50.874;4.394;2022-12-18T10:30:18;34.35;;;16.25;;
23596;SDS011;40226;50.874;4.394;2022-12-18T10:32:46;29.75;;;15.65;;
23596;SDS011;40226;50.874;4.394;2022-12-18T10:35:21;32.08;;;16.65;;
23596;SDS011;40226;50.874;4.394;2022-12-18T10:41:00;29.73;;;16.25;;
23596;SDS011;40226;50.874;4.394;2022-12-18T10:43:34;31.50;;;15.73;;
23596;SDS011;40226;50.874;4.394;2022-12-18T10:51:28;29.33;;;16.15;;
23596;SDS011;40226;50.874;4.394;2022-12-18T10:56:24;28.48;;;15.90;;
23596;SDS011;40226;50.874;4.394;2022-12-18T11:06:57;31.95;;;17.13;;
23596;SDS011;40226;50.874;4.394;2022-12-18T11:09:34;33.40;;;18.40;;
23596;SDS011;40226;50.874;4.394;2022-12-18T11:12:02;33.38;;;18.88;;
23596;SDS011;40226;50.874;4.394;2022-12-18T11:14:43;33.65;;;18.48;;
23596;SDS011;40226;50.874;4.394;2022-12-18T11:17:30;35.10;;;19.13;;
23596;SDS011;40226;50.874;4.394;2022-12-18T11:22:59;38.10;;;20.45;;
23596;SDS011;40226;50.874;4.394;2022-12-18T11:25:27;35.83;;;19.93;;
23596;SDS011;40226;50.874;4.394;2022-12-18T11:27:55;37.92;;;20.00;;
23596;SDS011;40226;50.874;4.394;2022-12-18T11:30:26;38.67;;;20.65;;
23596;SDS011;40226;50.874;4.394;2022-12-18T11:32:55;38.33;;;20.23;;
23596;SDS011;40226;50.874;4.394;2022-12-18T11:35:38;39.85;;;20.38;;
23596;SDS011;40226;50.874;4.394;2022-12-18T11:40:45;43.97;;;21.98;;
23596;SDS011;40226;50.874;4.394;2022-12-18T11:46:02;39.97;;;21.17;;
23596;SDS011;40226;50.874;4.394;2022-12-18T11:51:38;37.83;;;20.75;;
23596;SDS011;40226;50.874;4.394;2022-12-18T11:54:11;42.50;;;20.88;;
23596;SDS011;40226;50.874;4.394;2022-12-18T11:56:41;40.75;;;22.08;;
23596;SDS011;40226;50.874;4.394;2022-12-18T11:59:29;41.13;;;19.45;;
23596;SDS011;40226;50.874;4.394;2022-12-18T12:08:09;35.20;;;18.85;;
23596;SDS011;40226;50.874;4.394;2022-12-18T12:18:53;34.38;;;17.33;;
23596;SDS011;40226;50.874;4.394;2022-12-18T12:21:37;37.75;;;18.00;;
23596;SDS011;40226;50.874;4.394;2022-12-18T12:24:16;35.60;;;18.48;;
23596;SDS011;40226;50.874;4.394;2022-12-18T12:27:05;32.53;;;17.77;;
23596;SDS011;40226;50.874;4.394;2022-12-18T12:30:18;33.55;;;17.50;;
23596;SDS011;40226;50.874;4.394;2022-12-18T12:38:24;33.90;;;17.05;;
23596;SDS011;40226;50.874;4.394;2022-12-18T12:40:59;36.10;;;17.55;;
23596;SDS011;40226;50.874;4.394;2022-12-18T12:46:10;35.92;;;18.75;;
23596;SDS011;40226;50.874;4.394;2022-12-18T12:51:40;38.33;;;18.40;;
23596;SDS011;40226;50.874;4.394;2022-12-18T12:54:12;38.95;;;19.25;;
23596;SDS011;40226;50.874;4.394;2022-12-18T12:56:51;39.45;;;18.63;;
23596;SDS011;40226;50.874;4.394;2022-12-18T12:59:37;39.00;;;19.45;;
23596;SDS011;40226;50.874;4.394;2022-12-18T13:02:37;44.53;;;22.50;;
23596;SDS011;40226;50.874;4.394;2022-12-18T13:05:13;39.80;;;18.85;;
23596;SDS011;40226;50.874;4.394;2022-12-18T13:07:54;44.28;;;22.42;;
23596;SDS011;40226;50.874;4.394;2022-12-18T13:10:35;42.28;;;21.33;;
23596;SDS011;40226;50.874;4.394;2022-12-18T13:13:06;37.40;;;18.77;;
23596;SDS011;40226;50.874;4.394;2022-12-18T13:15:39;35.95;;;19.25;;
23596;SDS011;40226;50.874;4.394;2022-12-18T13:18:20;43.83;;;19.95;;
23596;SDS011;40226;50.874;4.394;2022-12-18T13:23:28;39.15;;;19.48;;
23596;SDS011;40226;50.874;4.394;2022-12-18T13:26:00;40.78;;;20.35;;
23596;SDS011;40226;50.874;4.394;2022-12-18T13:34:30;44.88;;;21.65;;
23596;SDS011;40226;50.874;4.394;2022-12-18T13:36:50;45.85;;;21.85;;
23596;SDS011;40226;50.874;4.394;2022-12-18T13:41:43;40.03;;;19.83;;
23596;SDS011;40226;50.874;4.394;2022-12-18T13:46:59;44.17;;;22.27;;
23596;SDS011;40226;50.874;4.394;2022-12-18T13:52:15;46.80;;;20.52;;
23596;SDS011;40226;50.874;4.394;2022-12-18T13:54:53;43.28;;;21.58;;
23596;SDS011;40226;50.874;4.394;2022-12-18T13:59:57;48.28;;;22.25;;
23596;SDS011;40226;50.874;4.394;2022-12-18T14:02:41;47.80;;;22.67;;
23596;SDS011;40226;50.874;4.394;2022-12-18T14:05:21;45.60;;;21.75;;
23596;SDS011;40226;50.874;4.394;2022-12-18T14:07:46;54.40;;;23.55;;
23596;SDS011;40226;50.874;4.394;2022-12-18T14:10:12;54.20;;;23.60;;
23596;SDS011;40226;50.874;4.394;2022-12-18T14:12:44;50.45;;;24.83;;
23596;SDS011;40226;50.874;4.394;2022-12-18T14:17:52;49.47;;;25.05;;
23596;SDS011;40226;50.874;4.394;2022-12-18T14:20:29;51.95;;;25.13;;
23596;SDS011;40226;50.874;4.394;2022-12-18T14:22:57;52.08;;;24.30;;
23596;SDS011;40226;50.874;4.394;2022-12-18T14:25:26;51.72;;;24.92;;
23596;SDS011;40226;50.874;4.394;2022-12-18T14:28:04;51.72;;;23.77;;
23596;SDS011;40226;50.874;4.394;2022-12-18T14:30:40;57.03;;;26.45;;
23596;SDS011;40226;50.874;4.394;2022-12-18T14:36:02;55.70;;;27.10;;
23596;SDS011;40226;50.874;4.394;2022-12-18T14:38:36;59.78;;;25.75;;
23596;SDS011;40226;50.874;4.394;2022-12-18T14:41:04;54.60;;;28.33;;
23596;SDS011;40226;50.874;4.394;2022-12-18T14:43:35;53.00;;;25.13;;
23596;SDS011;40226;50.874;4.394;2022-12-18T14:46:02;55.65;;;27.73;;
23596;SDS011;40226;50.874;4.394;2022-12-18T14:48:47;60.10;;;26.17;;
23596;SDS011;40226;50.874;4.394;2022-12-18T14:51:17;62.60;;;28.00;;
23596;SDS011;40226;50.874;4.394;2022-12-18T14:53:48;55.53;;;27.40;;
23596;SDS011;40226;50.874;4.394;2022-12-18T14:58:49;57.67;;;26.55;;
23596;SDS011;40226;50.874;4.394;2022-12-18T15:01:26;64.63;;;27.17;;
23596;SDS011;40226;50.874;4.394;2022-12-18T15:04:03;54.58;;;28.15;;
23596;SDS011;40226;50.874;4.394;2022-12-18T15:08:57;62.03;;;28.05;;
23596;SDS011;40226;50.874;4.394;2022-12-18T15:11:26;60.25;;;28.02;;
23596;SDS011;40226;50.874;4.394;2022-12-18T15:15:00;55.73;;;26.03;;
23596;SDS011;40226;50.874;4.394;2022-12-18T15:17:17;73.78;;;28.33;;
23596;SDS011;40226;50.874;4.394;2022-12-18T15:19:44;64.28;;;28.30;;
23596;SDS011;40226;50.874;4.394;2022-12-18T15:24:49;58.15;;;28.13;;
23596;SDS011;40226;50.874;4.394;2022-12-18T15:27:20;52.03;;;25.65;;
23596;SDS011;40226;50.874;4.394;2022-12-18T15:32:50;58.55;;;27.40;;
23596;SDS011;40226;50.874;4.394;2022-12-18T15:35:18;54.53;;;25.55;;
23596;SDS011;40226;50.874;4.394;2022-12-18T15:37:45;61.70;;;26.23;;
23596;SDS011;40226;50.874;4.394;2022-12-18T15:40:15;56.60;;;25.30;;
23596;SDS011;40226;50.874;4.394;2022-12-18T15:42:43;62.50;;;26.88;;
23596;SDS011;40226;50.874;4.394;2022-12-18T15:45:29;54.13;;;26.50;;
23596;SDS011;40226;50.874;4.394;2022-12-18T15:47:54;58.72;;;26.42;;
23596;SDS011;40226;50.874;4.394;2022-12-18T15:50:20;73.93;;;27.00;;
23596;SDS011;40226;50.874;4.394;2022-12-18T15:52:47;61.05;;;24.88;;
23596;SDS011;40226;50.874;4.394;2022-12-18T15:55:20;52.30;;;25.25;;
23596;SDS011;40226;50.874;4.394;2022-12-18T15:58:06;61.75;;;23.63;;
23596;SDS011;40226;50.874;4.394;2022-12-18T16:00:33;51.33;;;23.38;;
23596;SDS011;40226;50.874;4.394;2022-12-18T16:03:04;61.30;;;26.65;;
23596;SDS011;40226;50.874;4.394;2022-12-18T16:05:30;64.72;;;26.08;;
23596;SDS011;40226;50.874;4.394;2022-12-18T16:07:56;57.95;;;25.88;;
23596;SDS011;40226;50.874;4.394;2022-12-18T16:10:22;52.60;;;24.25;;
23596;SDS011;40226;50.874;4.394;2022-12-18T16:12:49;52.70;;;25.02;;
23596;SDS011;40226;50.874;4.394;2022-12-18T16:15:14;59.35;;;25.52;;
23596;SDS011;40226;50.874;4.394;2022-12-18T16:17:41;52.03;;;25.33;;
23596;SDS011;40226;50.874;4.394;2022-12-18T16:20:14;59.58;;;26.60;;
23596;SDS011;40226;50.874;4.394;2022-12-18T16:22:42;52.15;;;24.38;;
23596;SDS011;40226;50.874;4.394;2022-12-18T16:25:16;58.40;;;26.08;;
23596;SDS011;40226;50.874;4.394;2022-12-18T16:27:45;57.20;;;25.38;;
23596;SDS011;40226;50.874;4.394;2022-12-18T16:30:12;60.22;;;25.60;;
23596;SDS011;40226;50.874;4.394;2022-12-18T16:32:39;51.05;;;22.92;;
23596;SDS011;40226;50.874;4.394;2022-12-18T16:35:04;52.40;;;24.70;;
23596;SDS011;40226;50.874;4.394;2022-12-18T16:37:30;50.92;;;22.02;;
23596;SDS011;40226;50.874;4.394;2022-12-18T16:39:56;47.33;;;21.58;;
23596;SDS011;40226;50.874;4.394;2022-12-18T16:42:21;53.97;;;24.13;;
23596;SDS011;40226;50.874;4.394;2022-12-18T16:44:47;48.92;;;21.98;;